sensor_id;sensor_type;location;lat;lon;timestamp;pressure;altitude;pressure_sealevel;temperature;humidity
29379;BME280;16362;47.202;15.258;2023-06-14T00:00:43;95855.13;;;13.12;100.00
29379;BME280;16362;47.202;15.258;2023-06-14T00:03:10;95853.06;;;13.14;100.00
29379;BME280;16362;47.202;15.258;2023-06-14T00:05:38;95848.94;;;13.12;100.00
29379;BME280;16362;47.202;15.258;2023-06-14T00:08:09;95850.59;;;13.13;100.00
29379;BME280;16362;47.202;15.258;2023-06-14T00:10:37;95851.03;;;13.17;100.00
29379;BME280;16362;47.202;15.258;2023-06-14T00:13:05;95850.81;;;13.18;100.00
29379;BME280;16362;47.202;15.258;2023-06-14T00:15:33;95856.38;;;13.17;100.00
29379;BME280;16362;47.202;15.258;2023-06-14T00:18:00;95851.03;;;13.17;100.00
29379;BME280;16362;47.202;15.258;2023-06-14T00:20:29;95847.91;;;13.13;100.00
29379;BME280;16362;47.202;15.258;2023-06-14T00:22:58;95844.81;;;13.09;100.00
29379;BME280;16362;47.202;15.258;2023-06-14T00:25:25;95845.84;;;13.08;100.00
29379;BME280;16362;47.202;15.258;2023-06-14T00:27:56;95844.00;;;13.09;100.00
29379;BME280;16362;47.202;15.258;2023-06-14T00:30:24;95841.50;;;13.07;100.00
29379;BME280;16362;47.202;15.258;2023-06-14T00:32:51;95834.69;;;13.05;100.00
29379;BME280;16362;47.202;15.258;2023-06-14T00:35:18;95839.22;;;13.04;100.00
29379;BME280;16362;47.202;15.258;2023-06-14T00:37:45;95830.78;;;13.01;100.00
29379;BME280;16362;47.202;15.258;2023-06-14T00:40:12;95841.69;;;12.99;100.00
29379;BME280;16362;47.202;15.258;2023-06-14T00:42:39;95844.75;;;12.96;100.00
29379;BME280;16362;47.202;15.258;2023-06-14T00:45:06;95840.81;;;12.92;100.00
29379;BME280;16362;47.202;15.258;2023-06-14T00:47:34;95840.44;;;12.95;100.00
29379;BME280;16362;47.202;15.258;2023-06-14T00:50:01;95840.22;;;12.96;100.00
29379;BME280;16362;47.202;15.258;2023-06-14T00:52:28;95841.06;;;12.97;100.00
29379;BME280;16362;47.202;15.258;2023-06-14T00:54:56;95845.59;;;12.96;100.00
29379;BME280;16362;47.202;15.258;2023-06-14T00:57:22;95836.53;;;12.97;100.00
29379;BME280;16362;47.202;15.258;2023-06-14T00:59:50;95829.31;;;12.98;100.00
29379;BME280;16362;47.202;15.258;2023-06-14T01:02:17;95835.50;;;12.98;100.00
29379;BME280;16362;47.202;15.258;2023-06-14T01:04:48;95832.81;;;12.98;100.00
29379;BME280;16362;47.202;15.258;2023-06-14T01:07:23;95831.19;;;12.97;100.00
29379;BME280;16362;47.202;15.258;2023-06-14T01:13:27;95831.19;;;12.97;100.00
29379;BME280;16362;47.202;15.258;2023-06-14T01:15:44;95835.25;;;12.93;100.00
29379;BME280;16362;47.202;15.258;2023-06-14T01:18:11;95833.63;;;12.92;100.00
29379;BME280;16362;47.202;15.258;2023-06-14T01:20:45;95818.38;;;12.93;100.00
29379;BME280;16362;47.202;15.258;2023-06-14T01:23:17;95819.19;;;12.93;100.00
29379;BME280;16362;47.202;15.258;2023-06-14T01:25:44;95815.91;;;12.91;100.00
29379;BME280;16362;47.202;15.258;2023-06-14T01:28:12;95819.59;;;12.90;100.00
29379;BME280;16362;47.202;15.258;2023-06-14T01:30:41;95809.28;;;12.87;100.00
29379;BME280;16362;47.202;15.258;2023-06-14T01:33:14;95813.00;;;12.86;100.00
29379;BME280;16362;47.202;15.258;2023-06-14T01:35:43;95807.03;;;12.84;100.00
29379;BME280;16362;47.202;15.258;2023-06-14T01:38:10;95811.94;;;12.80;100.00
29379;BME280;16362;47.202;15.258;2023-06-14T01:40:39;95811.75;;;12.82;100.00
29379;BME280;16362;47.202;15.258;2023-06-14T01:43:07;95809.06;;;12.82;100.00
29379;BME280;16362;47.202;15.258;2023-06-14T01:45:34;95813.84;;;12.87;100.00
29379;BME280;16362;47.202;15.258;2023-06-14T01:48:02;95810.31;;;12.86;100.00
29379;BME280;16362;47.202;15.258;2023-06-14T01:50:30;95803.28;;;12.85;100.00
29379;BME280;16362;47.202;15.258;2023-06-14T01:52:57;95800.00;;;12.83;100.00
29379;BME280;16362;47.202;15.258;2023-06-14T01:55:24;95803.72;;;12.82;100.00
29379;BME280;16362;47.202;15.258;2023-06-14T01:57:51;95800.63;;;12.85;100.00
29379;BME280;16362;47.202;15.258;2023-06-14T02:00:19;95813.41;;;12.83;100.00
29379;BME280;16362;47.202;15.258;2023-06-14T02:02:45;95814.22;;;12.84;100.00
29379;BME280;16362;47.202;15.258;2023-06-14T02:05:12;95812.75;;;12.81;100.00
29379;BME280;16362;47.202;15.258;2023-06-14T02:07:39;95813.59;;;12.82;100.00
29379;BME280;16362;47.202;15.258;2023-06-14T02:10:06;95814.00;;;12.85;100.00
29379;BME280;16362;47.202;15.258;2023-06-14T02:12:33;95813.84;;;12.87;100.00
29379;BME280;16362;47.202;15.258;2023-06-14T02:15:00;95808.28;;;12.88;100.00
29379;BME280;16362;47.202;15.258;2023-06-14T02:17:26;95804.53;;;12.89;100.00
29379;BME280;16362;47.202;15.258;2023-06-14T02:19:53;95806.63;;;12.87;100.00
29379;BME280;16362;47.202;15.258;2023-06-14T02:22:20;95802.28;;;12.86;100.00
29379;BME280;16362;47.202;15.258;2023-06-14T02:24:48;95802.28;;;12.86;100.00
29379;BME280;16362;47.202;15.258;2023-06-14T02:27:24;95799.59;;;12.86;100.00
29379;BME280;16362;47.202;15.258;2023-06-14T02:29:51;95798.78;;;12.86;100.00
29379;BME280;16362;47.202;15.258;2023-06-14T02:32:18;95796.91;;;12.86;100.00
29379;BME280;16362;47.202;15.258;2023-06-14T02:34:44;95783.94;;;12.83;100.00
29379;BME280;16362;47.202;15.258;2023-06-14T02:37:16;95790.75;;;12.86;100.00
29379;BME280;16362;47.202;15.258;2023-06-14T02:39:43;95796.09;;;12.86;100.00
29379;BME280;16362;47.202;15.258;2023-06-14T02:42:09;95792.59;;;12.85;100.00
29379;BME280;16362;47.202;15.258;2023-06-14T02:44:36;95789.28;;;12.83;100.00
29379;BME280;16362;47.202;15.258;2023-06-14T02:47:04;95785.97;;;12.81;100.00
29379;BME280;16362;47.202;15.258;2023-06-14T02:49:31;95792.56;;;12.78;100.00
29379;BME280;16362;47.202;15.258;2023-06-14T02:51:58;95789.69;;;12.73;100.00
29379;BME280;16362;47.202;15.258;2023-06-14T02:54:24;95800.56;;;12.72;100.00
29379;BME280;16362;47.202;15.258;2023-06-14T02:56:52;95796.06;;;12.72;100.00
29379;BME280;16362;47.202;15.258;2023-06-14T02:59:19;95797.28;;;12.70;100.00
29379;BME280;16362;47.202;15.258;2023-06-14T03:01:45;95796.47;;;12.69;100.00
29379;BME280;16362;47.202;15.258;2023-06-14T03:04:12;95795.63;;;12.69;100.00
29379;BME280;16362;47.202;15.258;2023-06-14T03:06:39;95799.31;;;12.68;100.00
29379;BME280;16362;47.202;15.258;2023-06-14T03:09:06;95797.69;;;12.67;100.00
29379;BME280;16362;47.202;15.258;2023-06-14T03:11:35;95784.28;;;12.67;100.00
29379;BME280;16362;47.202;15.258;2023-06-14T03:14:02;95792.69;;;12.63;100.00
29379;BME280;16362;47.202;15.258;2023-06-14T03:16:33;95790.88;;;12.64;100.00
29379;BME280;16362;47.202;15.258;2023-06-14T03:19:00;95797.03;;;12.64;100.00
29379;BME280;16362;47.202;15.258;2023-06-14T03:21:27;95795.38;;;12.63;100.00
29379;BME280;16362;47.202;15.258;2023-06-14T03:23:54;95798.69;;;12.66;100.00
29379;BME280;16362;47.202;15.258;2023-06-14T03:26:21;95794.16;;;12.66;100.00
29379;BME280;16362;47.202;15.258;2023-06-14T03:28:48;95779.97;;;12.66;100.00
29379;BME280;16362;47.202;15.258;2023-06-14T03:31:16;95788.00;;;12.66;100.00
29379;BME280;16362;47.202;15.258;2023-06-14T03:33:43;95790.66;;;12.66;100.00
29379;BME280;16362;47.202;15.258;2023-06-14T03:36:10;95789.84;;;12.65;100.00
29379;BME280;16362;47.202;15.258;2023-06-14T03:38:37;95797.03;;;12.64;100.00
29379;BME280;16362;47.202;15.258;2023-06-14T03:41:03;95795.22;;;12.65;100.00
29379;BME280;16362;47.202;15.258;2023-06-14T03:43:30;95795.00;;;12.67;100.00
29379;BME280;16362;47.202;15.258;2023-06-14T03:45:57;95793.34;;;12.66;100.00
29379;BME280;16362;47.202;15.258;2023-06-14T03:48:23;95798.25;;;12.62;100.00
29379;BME280;16362;47.202;15.258;2023-06-14T03:50:50;95796.00;;;12.59;100.00
29379;BME280;16362;47.202;15.258;2023-06-14T03:53:17;95796.41;;;12.56;100.00
29379;BME280;16362;47.202;15.258;2023-06-14T03:55:44;95797.00;;;12.58;100.00
29379;BME280;16362;47.202;15.258;2023-06-14T03:58:15;95802.16;;;12.59;100.00
29379;BME280;16362;47.202;15.258;2023-06-14T04:00:41;95805.03;;;12.58;100.00
29379;BME280;16362;47.202;15.258;2023-06-14T04:03:09;95811.84;;;12.60;100.00
29379;BME280;16362;47.202;15.258;2023-06-14T04:05:36;95815.34;;;12.61;100.00
29379;BME280;16362;47.202;15.258;2023-06-14T04:08:04;95810.81;;;12.61;100.00
29379;BME280;16362;47.202;15.258;2023-06-14T04:10:30;95817.84;;;12.62;100.00
29379;BME280;16362;47.202;15.258;2023-06-14T04:12:57;95810.44;;;12.64;100.00
29379;BME280;16362;47.202;15.258;2023-06-14T04:15:24;95820.72;;;12.68;100.00
29379;BME280;16362;47.202;15.258;2023-06-14T04:17:52;95816.41;;;12.67;100.00
29379;BME280;16362;47.202;15.258;2023-06-14T04:20:18;95819.91;;;12.67;100.00
29379;BME280;16362;47.202;15.258;2023-06-14T04:22:46;95823.22;;;12.69;100.00
29379;BME280;16362;47.202;15.258;2023-06-14T04:25:12;95827.75;;;12.69;100.00
29379;BME280;16362;47.202;15.258;2023-06-14T04:27:39;95831.88;;;12.71;100.00
29379;BME280;16362;47.202;15.258;2023-06-14T04:30:08;95825.91;;;12.69;100.00
29379;BME280;16362;47.202;15.258;2023-06-14T04:32:35;95831.25;;;12.69;100.00
29379;BME280;16362;47.202;15.258;2023-06-14T04:35:07;95824.66;;;12.72;100.00
29379;BME280;16362;47.202;15.258;2023-06-14T04:37:34;95832.31;;;12.75;100.00
29379;BME280;16362;47.202;15.258;2023-06-14T04:40:01;95826.56;;;12.78;100.00
29379;BME280;16362;47.202;15.258;2023-06-14T04:42:28;95826.34;;;12.79;100.00
29379;BME280;16362;47.202;15.258;2023-06-14T04:44:57;95827.00;;;12.82;100.00
29379;BME280;16362;47.202;15.258;2023-06-14T04:47:23;95828.44;;;12.84;100.00
29379;BME280;16362;47.202;15.258;2023-06-14T04:49:59;95827.41;;;12.85;100.00
29379;BME280;16362;47.202;15.258;2023-06-14T04:52:27;95824.91;;;12.84;100.00
29379;BME280;16362;47.202;15.258;2023-06-14T04:54:56;95827.59;;;12.84;100.00
29379;BME280;16362;47.202;15.258;2023-06-14T04:57:23;95835.25;;;12.87;100.00
29379;BME280;16362;47.202;15.258;2023-06-14T04:59:51;95834.00;;;12.89;100.00
29379;BME280;16362;47.202;15.258;2023-06-14T05:02:22;95840.22;;;12.90;100.00
29379;BME280;16362;47.202;15.258;2023-06-14T05:04:50;95826.63;;;12.91;100.00
29379;BME280;16362;47.202;15.258;2023-06-14T05:07:17;95841.47;;;12.94;100.00
29379;BME280;16362;47.202;15.258;2023-06-14T05:09:44;95833.63;;;12.92;100.00
29379;BME280;16362;47.202;15.258;2023-06-14T05:12:11;95836.09;;;12.94;100.00
29379;BME280;16362;47.202;15.258;2023-06-14T05:14:37;95845.78;;;12.95;100.00
29379;BME280;16362;47.202;15.258;2023-06-14T05:17:04;95845.34;;;12.91;100.00
29379;BME280;16362;47.202;15.258;2023-06-14T05:19:32;95849.69;;;12.92;100.00
29379;BME280;16362;47.202;15.258;2023-06-14T05:21:58;95851.31;;;12.93;100.00
29379;BME280;16362;47.202;15.258;2023-06-14T05:24:25;95851.75;;;12.97;100.00
29379;BME280;16362;47.202;15.258;2023-06-14T05:26:52;95846.00;;;13.00;100.00
29379;BME280;16362;47.202;15.258;2023-06-14T05:29:19;95857.16;;;13.04;100.00
29379;BME280;16362;47.202;15.258;2023-06-14T05:31:45;95855.13;;;13.06;100.00
29379;BME280;16362;47.202;15.258;2023-06-14T05:34:12;95849.34;;;13.09;100.00
29379;BME280;16362;47.202;15.258;2023-06-14T05:36:39;95854.69;;;13.09;100.00
29379;BME280;16362;47.202;15.258;2023-06-14T05:39:05;95856.38;;;13.10;100.00
29379;BME280;16362;47.202;15.258;2023-06-14T05:41:33;95865.00;;;13.12;100.00
29379;BME280;16362;47.202;15.258;2023-06-14T05:43:59;95859.84;;;13.10;100.00
29379;BME280;16362;47.202;15.258;2023-06-14T05:46:27;95859.84;;;13.10;100.00
29379;BME280;16362;47.202;15.258;2023-06-14T05:48:55;95867.69;;;13.12;100.00
29379;BME280;16362;47.202;15.258;2023-06-14T05:51:22;95869.16;;;13.14;100.00
29379;BME280;16362;47.202;15.258;2023-06-14T05:53:51;95864.59;;;13.15;100.00
29379;BME280;16362;47.202;15.258;2023-06-14T05:56:18;95869.78;;;13.17;100.00
29379;BME280;16362;47.202;15.258;2023-06-14T05:58:46;95864.22;;;13.18;100.00
29379;BME280;16362;47.202;15.258;2023-06-14T06:01:13;95874.53;;;13.21;100.00
29379;BME280;16362;47.202;15.258;2023-06-14T06:03:41;95872.50;;;13.23;100.00
29379;BME280;16362;47.202;15.258;2023-06-14T06:06:08;95868.75;;;13.24;100.00
29379;BME280;16362;47.202;15.258;2023-06-14T06:08:34;95871.06;;;13.27;100.00
29379;BME280;16362;47.202;15.258;2023-06-14T06:11:01;95873.13;;;13.32;100.00
29379;BME280;16362;47.202;15.258;2023-06-14T06:13:28;95867.19;;;13.37;100.00
29379;BME280;16362;47.202;15.258;2023-06-14T06:15:55;95864.94;;;13.40;100.00
29379;BME280;16362;47.202;15.258;2023-06-14T06:18:22;95866.59;;;13.48;100.00
29379;BME280;16362;47.202;15.258;2023-06-14T06:20:48;95864.97;;;13.54;100.00
29379;BME280;16362;47.202;15.258;2023-06-14T06:23:15;95870.94;;;13.62;100.00
29379;BME280;16362;47.202;15.258;2023-06-14T06:25:42;95868.91;;;13.71;100.00
29379;BME280;16362;47.202;15.258;2023-06-14T06:28:09;95869.13;;;13.76;100.00
29379;BME280;16362;47.202;15.258;2023-06-14T06:30:36;95876.78;;;13.79;100.00
29379;BME280;16362;47.202;15.258;2023-06-14T06:33:03;95885.63;;;13.87;100.00
29379;BME280;16362;47.202;15.258;2023-06-14T06:35:30;95876.78;;;13.93;100.00
29379;BME280;16362;47.202;15.258;2023-06-14T06:37:57;95876.59;;;14.01;100.00
29379;BME280;16362;47.202;15.258;2023-06-14T06:40:24;95877.41;;;14.08;100.00
29379;BME280;16362;47.202;15.258;2023-06-14T06:42:51;95884.63;;;14.14;100.00
29379;BME280;16362;47.202;15.258;2023-06-14T06:45:18;95892.91;;;14.20;100.00
29379;BME280;16362;47.202;15.258;2023-06-14T06:47:44;95892.69;;;14.21;100.00
29379;BME280;16362;47.202;15.258;2023-06-14T06:50:11;95897.03;;;14.22;100.00
29379;BME280;16362;47.202;15.258;2023-06-14T06:52:38;95890.00;;;14.21;100.00
29379;BME280;16362;47.202;15.258;2023-06-14T06:55:05;95896.00;;;14.03;100.00
29379;BME280;16362;47.202;15.258;2023-06-14T06:57:32;95898.25;;;14.13;100.00
29379;BME280;16362;47.202;15.258;2023-06-14T06:59:59;95896.59;;;14.12;100.00
29379;BME280;16362;47.202;15.258;2023-06-14T07:02:25;95905.28;;;14.07;100.00
29379;BME280;16362;47.202;15.258;2023-06-14T07:04:52;95903.00;;;14.04;100.00
29379;BME280;16362;47.202;15.258;2023-06-14T07:07:19;95908.16;;;14.06;100.00
29379;BME280;16362;47.202;15.258;2023-06-14T07:09:46;95902.38;;;14.02;100.00
29379;BME280;16362;47.202;15.258;2023-06-14T07:12:13;95915.16;;;14.00;100.00
29379;BME280;16362;47.202;15.258;2023-06-14T07:14:39;95914.78;;;13.96;100.00
29379;BME280;16362;47.202;15.258;2023-06-14T07:17:06;95920.13;;;13.96;100.00
29379;BME280;16362;47.202;15.258;2023-06-14T07:19:32;95927.97;;;13.91;100.00
29379;BME280;16362;47.202;15.258;2023-06-14T07:21:59;95922.78;;;13.83;100.00
29379;BME280;16362;47.202;15.258;2023-06-14T07:24:26;95928.97;;;13.90;100.00
29379;BME280;16362;47.202;15.258;2023-06-14T07:26:55;95936.22;;;13.96;100.00
29379;BME280;16362;47.202;15.258;2023-06-14T07:29:22;95933.34;;;14.05;100.00
29379;BME280;16362;47.202;15.258;2023-06-14T07:31:49;95939.75;;;14.10;100.00
29379;BME280;16362;47.202;15.258;2023-06-14T07:34:16;95942.44;;;14.17;100.00
29379;BME280;16362;47.202;15.258;2023-06-14T07:36:42;95941.41;;;14.18;100.00
29379;BME280;16362;47.202;15.258;2023-06-14T07:39:11;95945.72;;;14.19;100.00
29379;BME280;16362;47.202;15.258;2023-06-14T07:41:37;95941.22;;;14.26;100.00
29379;BME280;16362;47.202;15.258;2023-06-14T07:44:04;95950.06;;;14.20;100.00
29379;BME280;16362;47.202;15.258;2023-06-14T07:46:31;95958.34;;;14.19;100.00
29379;BME280;16362;47.202;15.258;2023-06-14T07:48:57;95961.03;;;14.25;100.00
29379;BME280;16362;47.202;15.258;2023-06-14T07:51:24;95968.84;;;14.20;100.00
29379;BME280;16362;47.202;15.258;2023-06-14T07:53:51;95971.97;;;14.24;100.00
29379;BME280;16362;47.202;15.258;2023-06-14T07:56:18;95970.09;;;14.24;100.00
29379;BME280;16362;47.202;15.258;2023-06-14T07:58:44;95971.75;;;14.25;100.00
29379;BME280;16362;47.202;15.258;2023-06-14T08:01:11;95969.28;;;14.24;100.00
29379;BME280;16362;47.202;15.258;2023-06-14T08:03:38;95967.19;;;14.19;100.00
29379;BME280;16362;47.202;15.258;2023-06-14T08:06:06;95977.13;;;14.19;100.00
29379;BME280;16362;47.202;15.258;2023-06-14T08:08:33;95983.31;;;14.19;100.00
29379;BME280;16362;47.202;15.258;2023-06-14T08:10:59;95996.72;;;14.19;100.00
29379;BME280;16362;47.202;15.258;2023-06-14T08:13:26;96000.25;;;14.20;100.00
29379;BME280;16362;47.202;15.258;2023-06-14T08:15:53;95990.75;;;14.17;100.00
29379;BME280;16362;47.202;15.258;2023-06-14T08:18:20;95985.34;;;14.04;100.00
29379;BME280;16362;47.202;15.258;2023-06-14T08:20:46;95989.47;;;14.00;100.00
29379;BME280;16362;47.202;15.258;2023-06-14T08:23:13;95999.75;;;13.96;100.00
29379;BME280;16362;47.202;15.258;2023-06-14T08:25:40;96004.72;;;13.92;100.00
29379;BME280;16362;47.202;15.258;2023-06-14T08:28:06;96015.84;;;13.89;100.00
29379;BME280;16362;47.202;15.258;2023-06-14T08:30:33;96009.63;;;13.82;100.00
29379;BME280;16362;47.202;15.258;2023-06-14T08:32:59;96010.44;;;13.76;100.00
29379;BME280;16362;47.202;15.258;2023-06-14T08:35:40;96006.84;;;13.55;100.00
29379;BME280;16362;47.202;15.258;2023-06-14T08:38:07;96006.63;;;13.57;100.00
29379;BME280;16362;47.202;15.258;2023-06-14T08:40:36;96019.00;;;13.51;100.00
29379;BME280;16362;47.202;15.258;2023-06-14T08:43:03;96028.69;;;13.52;100.00
29379;BME280;16362;47.202;15.258;2023-06-14T08:45:30;96039.13;;;13.40;100.00
29379;BME280;16362;47.202;15.258;2023-06-14T08:47:58;96040.38;;;13.38;100.00
29379;BME280;16362;47.202;15.258;2023-06-14T08:50:27;96036.78;;;13.30;100.00
29379;BME280;16362;47.202;15.258;2023-06-14T08:53:00;96037.59;;;13.31;100.00
29379;BME280;16362;47.202;15.258;2023-06-14T08:55:30;96039.69;;;13.29;100.00
29379;BME280;16362;47.202;15.258;2023-06-14T08:58:01;96044.59;;;13.25;100.00
29379;BME280;16362;47.202;15.258;2023-06-14T09:00:30;96049.75;;;13.27;100.00
29379;BME280;16362;47.202;15.258;2023-06-14T09:02:59;96053.03;;;13.22;100.00
29379;BME280;16362;47.202;15.258;2023-06-14T09:05:28;96048.28;;;13.24;100.00
29379;BME280;16362;47.202;15.258;2023-06-14T09:07:55;96062.72;;;13.23;100.00
29379;BME280;16362;47.202;15.258;2023-06-14T09:10:24;96050.78;;;13.26;100.00
29379;BME280;16362;47.202;15.258;2023-06-14T09:12:53;96048.94;;;13.26;100.00
29379;BME280;16362;47.202;15.258;2023-06-14T09:15:20;96055.34;;;13.32;100.00
29379;BME280;16362;47.202;15.258;2023-06-14T09:17:47;96054.53;;;13.31;100.00
29379;BME280;16362;47.202;15.258;2023-06-14T09:20:14;96053.50;;;13.32;100.00
29379;BME280;16362;47.202;15.258;2023-06-14T09:22:45;96052.28;;;13.35;100.00
29379;BME280;16362;47.202;15.258;2023-06-14T09:25:12;96059.38;;;13.43;100.00
29379;BME280;16362;47.202;15.258;2023-06-14T09:27:54;96060.88;;;13.52;100.00
29379;BME280;16362;47.202;15.258;2023-06-14T09:30:21;96052.66;;;13.60;100.00
29379;BME280;16362;47.202;15.258;2023-06-14T09:32:48;96061.00;;;13.79;100.00
29379;BME280;16362;47.202;15.258;2023-06-14T09:35:18;96066.41;;;13.86;100.00
29379;BME280;16362;47.202;15.258;2023-06-14T09:37:44;96069.72;;;13.94;100.00
29379;BME280;16362;47.202;15.258;2023-06-14T09:40:11;96063.78;;;14.12;100.00
29379;BME280;16362;47.202;15.258;2023-06-14T09:42:38;96062.75;;;14.07;100.00
29379;BME280;16362;47.202;15.258;2023-06-14T09:45:05;96063.00;;;14.19;100.00
29379;BME280;16362;47.202;15.258;2023-06-14T09:47:32;96060.75;;;14.22;100.00
29379;BME280;16362;47.202;15.258;2023-06-14T09:49:58;96059.91;;;14.28;100.00
29379;BME280;16362;47.202;15.258;2023-06-14T09:52:27;96061.16;;;14.32;100.00
29379;BME280;16362;47.202;15.258;2023-06-14T09:54:54;96054.56;;;14.42;100.00
29379;BME280;16362;47.202;15.258;2023-06-14T09:57:22;96058.91;;;14.43;100.00
29379;BME280;16362;47.202;15.258;2023-06-14T09:59:53;96064.31;;;14.56;100.00
29379;BME280;16362;47.202;15.258;2023-06-14T10:02:32;96056.09;;;14.71;100.00
29379;BME280;16362;47.202;15.258;2023-06-14T10:05:04;96046.16;;;14.98;100.00
29379;BME280;16362;47.202;15.258;2023-06-14T10:07:39;96039.13;;;15.24;100.00
29379;BME280;16362;47.202;15.258;2023-06-14T10:10:07;96039.09;;;15.38;100.00
29379;BME280;16362;47.202;15.258;2023-06-14T10:12:34;96026.63;;;15.57;100.00
29379;BME280;16362;47.202;15.258;2023-06-14T10:15:01;96035.75;;;15.49;98.33
29379;BME280;16362;47.202;15.258;2023-06-14T10:17:41;96047.16;;;15.38;100.00
29379;BME280;16362;47.202;15.258;2023-06-14T10:20:26;96045.13;;;15.26;99.09
29379;BME280;16362;47.202;15.258;2023-06-14T10:23:24;96039.13;;;15.24;100.00
29379;BME280;16362;47.202;15.258;2023-06-14T10:25:58;96049.66;;;15.26;100.00
29379;BME280;16362;47.202;15.258;2023-06-14T10:28:26;96041.16;;;15.36;100.00
29379;BME280;16362;47.202;15.258;2023-06-14T10:31:09;96044.03;;;15.41;100.00
29379;BME280;16362;47.202;15.258;2023-06-14T10:33:49;96042.00;;;15.36;100.00
29379;BME280;16362;47.202;15.258;2023-06-14T10:38:57;96034.59;;;15.18;100.00
29379;BME280;16362;47.202;15.258;2023-06-14T10:41:27;96037.47;;;15.16;97.95
29379;BME280;16362;47.202;15.258;2023-06-14T10:46:39;96034.97;;;15.28;100.00
29379;BME280;16362;47.202;15.258;2023-06-14T10:49:10;96034.97;;;15.28;100.00
29379;BME280;16362;47.202;15.258;2023-06-14T10:51:42;96030.44;;;15.29;100.00
29379;BME280;16362;47.202;15.258;2023-06-14T10:54:13;96024.66;;;15.25;100.00
29379;BME280;16362;47.202;15.258;2023-06-14T10:56:52;96026.91;;;15.22;100.00
29379;BME280;16362;47.202;15.258;2023-06-14T10:59:20;96029.38;;;15.37;100.00
29379;BME280;16362;47.202;15.258;2023-06-14T11:01:57;96025.59;;;15.58;100.00
29379;BME280;16362;47.202;15.258;2023-06-14T11:04:40;96035.16;;;15.47;100.00
29379;BME280;16362;47.202;15.258;2023-06-14T11:10:36;96038.16;;;15.84;99.27
29379;BME280;16362;47.202;15.258;2023-06-14T11:13:04;96033.59;;;15.85;99.35
29379;BME280;16362;47.202;15.258;2023-06-14T11:15:32;96029.47;;;15.75;100.00
29379;BME280;16362;47.202;15.258;2023-06-14T11:18:06;96031.16;;;15.70;100.00
29379;BME280;16362;47.202;15.258;2023-06-14T11:20:34;96025.16;;;15.61;100.00
29379;BME280;16362;47.202;15.258;2023-06-14T11:23:02;96021.69;;;15.54;100.00
29379;BME280;16362;47.202;15.258;2023-06-14T11:25:29;96025.41;;;15.46;100.00
29379;BME280;16362;47.202;15.258;2023-06-14T11:27:56;96017.75;;;15.49;100.00
29379;BME280;16362;47.202;15.258;2023-06-14T11:30:24;96014.41;;;15.61;100.00
29379;BME280;16362;47.202;15.258;2023-06-14T11:32:52;96008.00;;;15.62;100.00
29379;BME280;16362;47.202;15.258;2023-06-14T11:35:25;96001.66;;;15.95;100.00
29379;BME280;16362;47.202;15.258;2023-06-14T11:37:56;96005.16;;;16.02;98.55
29379;BME280;16362;47.202;15.258;2023-06-14T11:40:24;96004.09;;;16.03;100.00
29379;BME280;16362;47.202;15.258;2023-06-14T11:42:58;95993.84;;;16.25;100.00
29379;BME280;16362;47.202;15.258;2023-06-14T11:45:26;95988.38;;;16.07;100.00
29379;BME280;16362;47.202;15.258;2023-06-14T11:48:00;95988.84;;;15.97;100.00
29379;BME280;16362;47.202;15.258;2023-06-14T11:50:27;95982.63;;;15.90;100.00
29379;BME280;16362;47.202;15.258;2023-06-14T11:52:55;95993.03;;;15.86;100.00
29379;BME280;16362;47.202;15.258;2023-06-14T11:55:23;95989.13;;;15.82;100.00
29379;BME280;16362;47.202;15.258;2023-06-14T11:57:50;95994.28;;;15.77;100.00
29379;BME280;16362;47.202;15.258;2023-06-14T12:00:17;95993.88;;;15.73;100.00
29379;BME280;16362;47.202;15.258;2023-06-14T12:02:52;95997.00;;;15.70;100.00
29379;BME280;16362;47.202;15.258;2023-06-14T12:05:21;96000.53;;;15.64;100.00
29379;BME280;16362;47.202;15.258;2023-06-14T12:07:49;95993.75;;;15.55;100.00
29379;BME280;16362;47.202;15.258;2023-06-14T12:10:16;95993.34;;;15.51;100.00
29379;BME280;16362;47.202;15.258;2023-06-14T12:12:44;95984.25;;;15.52;100.00
29379;BME280;16362;47.202;15.258;2023-06-14T12:15:11;95989.63;;;15.52;100.00
29379;BME280;16362;47.202;15.258;2023-06-14T12:17:39;95990.63;;;15.58;100.00
29379;BME280;16362;47.202;15.258;2023-06-14T12:20:11;95987.72;;;15.59;100.00
29379;BME280;16362;47.202;15.258;2023-06-14T12:22:52;95988.34;;;15.61;100.00
29379;BME280;16362;47.202;15.258;2023-06-14T12:25:27;95984.56;;;15.69;100.00
29379;BME280;16362;47.202;15.258;2023-06-14T12:27:54;95988.91;;;15.83;100.00
29379;BME280;16362;47.202;15.258;2023-06-14T12:30:21;95986.69;;;16.06;100.00
29379;BME280;16362;47.202;15.258;2023-06-14T12:32:48;95987.47;;;16.20;100.00
29379;BME280;16362;47.202;15.258;2023-06-14T12:35:15;95979.22;;;16.40;100.00
29379;BME280;16362;47.202;15.258;2023-06-14T12:37:42;95983.59;;;16.41;100.00
29379;BME280;16362;47.202;15.258;2023-06-14T12:40:09;95977.69;;;16.50;99.28
29379;BME280;16362;47.202;15.258;2023-06-14T12:42:38;95978.16;;;16.47;100.00
29379;BME280;16362;47.202;15.258;2023-06-14T12:45:05;95983.13;;;16.44;99.86
29379;BME280;16362;47.202;15.258;2023-06-14T12:47:31;95984.34;;;16.48;100.00
29379;BME280;16362;47.202;15.258;2023-06-14T12:49:58;95988.44;;;16.57;98.75
29379;BME280;16362;47.202;15.258;2023-06-14T12:52:25;95987.00;;;16.55;96.72
29379;BME280;16362;47.202;15.258;2023-06-14T12:54:52;95984.88;;;16.63;96.21
29379;BME280;16362;47.202;15.258;2023-06-14T12:57:18;95982.25;;;16.82;98.91